Time;durP1;ratioP1;P1;durP2;ratioP2;P2;SDS_P1;SDS_P2;PMS_P1;PMS_P2;Temp;Humidity;BMP_temperature;BMP_pressure;BME280_temperature;BME280_humidity;BME280_pressure;Samples;Min_cycle;Max_cycle;Signal;HPM_P1;HPM_P2
2022/08/16 00:00:17;;;;;;;3.85;3.35;;;;;;;27.94;46.08;100551.25;5025540;28;20022;-59
2022/08/16 00:02:43;;;;;;;6.88;3.90;;;;;;;27.94;45.99;100556.72;5008434;28;20475;-59
2022/08/16 00:05:10;;;;;;;4.65;3.50;;;;;;;27.77;46.01;100531.19;5025259;28;20086;-60
2022/08/16 00:07:36;;;;;;;3.50;3.20;;;;;;;27.76;45.67;100527.63;5007434;28;20025;-60
2022/08/16 00:10:04;;;;;;;3.70;3.40;;;;;;;27.93;45.87;100555.06;5008129;28;20022;-60
2022/08/16 00:12:30;;;;;;;3.95;3.55;;;;;;;27.71;45.73;100527.47;5007715;28;20036;-58
2022/08/16 00:14:56;;;;;;;4.30;3.88;;;;;;;27.72;45.99;100522.84;5007938;28;20030;-59
2022/08/16 00:17:22;;;;;;;3.90;3.53;;;;;;;27.94;45.76;100553.16;5007917;28;20137;-59
2022/08/16 00:19:47;;;;;;;4.57;3.60;;;;;;;27.93;45.91;100554.25;5025227;28;20032;-59
2022/08/16 00:22:13;;;;;;;4.10;3.58;;;;;;;27.93;45.80;100554.25;5043389;28;20025;-59
2022/08/16 00:24:38;;;;;;;3.78;3.38;;;;;;;27.92;45.58;100550.69;5027568;28;20071;-59
2022/08/16 00:27:03;;;;;;;3.65;3.35;;;;;;;27.74;45.84;100516.13;5027168;28;20037;-59
2022/08/16 00:29:29;;;;;;;3.67;3.38;;;;;;;27.90;45.54;100550.06;5045021;28;20033;-59
2022/08/16 00:31:54;;;;;;;3.80;3.40;;;;;;;27.90;45.90;100544.59;5045090;28;20080;-59
2022/08/16 00:34:21;;;;;;;4.13;3.75;;;;;;;27.90;45.69;100550.06;5044898;28;20061;-61
2022/08/16 00:36:48;;;;;;;4.13;3.67;;;;;;;27.90;45.81;100556.38;5026483;28;20033;-60
2022/08/16 00:39:15;;;;;;;4.22;3.63;;;;;;;27.90;45.55;100558.28;5010916;28;20386;-60
2022/08/16 00:41:43;;;;;;;3.80;3.40;;;;;;;27.90;45.59;100555.53;5044706;28;20026;-60
2022/08/16 00:44:11;;;;;;;4.20;3.42;;;;;;;27.89;45.69;100560.19;5030675;28;20025;-60
2022/08/16 00:46:47;;;;;;;4.72;3.80;;;;;;;27.89;45.58;100546.50;5048775;28;20032;-60
2022/08/16 00:49:13;;;;;;;4.28;3.88;;;;;;;27.88;45.49;100549.50;5031239;28;20032;-60
2022/08/16 00:51:39;;;;;;;4.03;3.63;;;;;;;27.86;45.15;100546.97;5030417;28;20053;-59
2022/08/16 00:54:05;;;;;;;5.35;3.58;;;;;;;27.71;45.34;100522.03;5031125;28;20044;-59
2022/08/16 00:56:35;;;;;;;4.03;3.63;;;;;;;27.87;45.37;100548.66;5030641;28;20474;-60
2022/08/16 00:59:00;;;;;;;4.90;3.60;;;;;;;27.88;45.01;100546.75;5031214;28;20033;-60
2022/08/16 01:01:26;;;;;;;3.65;3.35;;;;;;;27.71;45.03;100519.28;5045439;28;20117;-59
2022/08/16 01:03:52;;;;;;;4.68;3.70;;;;;;;27.86;44.74;100551.63;5018982;28;20021;-59
2022/08/16 01:06:18;;;;;;;3.72;3.35;;;;;;;27.65;45.07;100510.16;5024491;28;20021;-59
2022/08/16 01:08:46;;;;;;;3.88;3.53;;;;;;;27.86;45.02;100540.69;5010801;28;20021;-59
2022/08/16 01:11:12;;;;;;;3.83;3.35;;;;;;;27.84;44.97;100535.47;5021587;28;20031;-59
2022/08/16 01:13:38;;;;;;;5.72;3.78;;;;;;;27.85;45.00;100553.53;5048172;28;20037;-60
2022/08/16 01:16:10;;;;;;;4.30;3.40;;;;;;;27.85;44.71;100542.59;5030046;28;20013;-60
2022/08/16 01:18:45;;;;;;;4.15;3.70;;;;;;;27.84;44.46;100540.94;5029197;28;20029;-59
2022/08/16 01:21:20;;;;;;;4.07;3.00;;;;;;;27.69;44.25;100523.31;5010503;28;20026;-59
2022/08/16 01:24:10;;;;;;;5.03;4.30;;;;;;;27.83;44.45;100533.81;5010486;28;20048;-59
2022/08/16 01:26:36;;;;;;;4.63;3.88;;;;;;;27.83;44.48;100536.56;5027965;28;20081;-59
2022/08/16 01:29:06;;;;;;;4.35;3.92;;;;;;;27.83;44.49;100536.56;5010504;28;20053;-60
2022/08/16 01:31:31;;;;;;;4.05;3.20;;;;;;;27.81;44.30;100530.47;5010595;28;20030;-59
2022/08/16 01:33:57;;;;;;;5.03;3.88;;;;;;;27.61;44.30;100500.75;5027970;28;20092;-59
2022/08/16 01:36:22;;;;;;;4.13;3.38;;;;;;;27.81;44.44;100527.75;5034683;28;20040;-59
2022/08/16 01:38:48;;;;;;;4.35;3.40;;;;;;;27.80;44.24;100533.44;5013377;28;20048;-60
2022/08/16 01:41:17;;;;;;;4.70;3.67;;;;;;;27.81;44.05;100540.56;5047456;28;20029;-60
2022/08/16 01:43:44;;;;;;;4.50;3.42;;;;;;;27.80;43.88;100542.47;5047480;28;20025;-60
2022/08/16 01:46:21;;;;;;;3.83;3.38;;;;;;;27.79;44.16;100540.81;5013002;28;20049;-59
2022/08/16 01:48:47;;;;;;;4.72;3.25;;;;;;;27.59;44.13;100508.34;5047632;28;20025;-60
2022/08/16 01:51:15;;;;;;;4.57;3.40;;;;;;;27.59;44.37;100512.97;5029539;28;20022;-60
2022/08/16 01:53:41;;;;;;;4.13;3.08;;;;;;;27.78;44.16;100538.31;5029286;28;20049;-60
2022/08/16 01:56:08;;;;;;;4.90;3.60;;;;;;;27.77;44.13;100534.75;5028895;28;20109;-60
2022/08/16 01:58:33;;;;;;;3.90;3.60;;;;;;;27.78;44.19;100539.16;5047382;28;20029;-60
2022/08/16 02:00:59;;;;;;;4.32;3.50;;;;;;;27.76;44.17;100535.81;5046936;28;20376;-60
2022/08/16 02:03:24;;;;;;;3.92;3.55;;;;;;;27.77;43.83;100529.28;5047339;28;20039;-60
2022/08/16 02:05:50;;;;;;;3.63;3.20;;;;;;;27.59;44.07;100508.34;5047112;28;20021;-60
2022/08/16 02:08:15;;;;;;;6.68;3.80;;;;;;;27.77;43.70;100542.13;5047132;28;20025;-60
2022/08/16 02:10:40;;;;;;;3.58;3.13;;;;;;;27.74;43.69;100529.78;5020653;28;20026;-60
2022/08/16 02:13:07;;;;;;;4.43;4.00;;;;;;;27.66;43.79;100522.72;5026856;28;20026;-60
2022/08/16 02:15:34;;;;;;;5.65;3.83;;;;;;;27.72;44.10;100531.03;5009714;28;20022;-60
2022/08/16 02:18:00;;;;;;;3.63;3.33;;;;;;;27.75;43.75;100539.63;5009517;28;20030;-60
2022/08/16 02:20:28;;;;;;;4.22;3.60;;;;;;;27.73;43.63;100547.22;5026848;28;20026;-60
2022/08/16 02:22:55;;;;;;;4.88;3.72;;;;;;;27.74;44.03;100545.31;5009257;28;20025;-60
2022/08/16 02:25:22;;;;;;;4.20;3.65;;;;;;;27.73;43.80;100544.47;5009654;28;20045;-60
2022/08/16 02:27:47;;;;;;;3.97;3.08;;;;;;;27.72;43.81;100551.00;4992942;28;20018;-59
2022/08/16 02:30:16;;;;;;;5.25;3.58;;;;;;;27.73;43.78;100551.84;5009499;28;20029;-60
2022/08/16 02:32:43;;;;;;;3.53;3.22;;;;;;;27.73;43.83;100546.38;5026901;28;20025;-60
2022/08/16 02:35:09;;;;;;;3.67;3.13;;;;;;;27.70;43.67;100539.47;4992675;28;20099;-60
2022/08/16 02:37:34;;;;;;;3.60;3.30;;;;;;;27.71;43.71;100549.34;5026482;28;20053;-59
2022/08/16 02:40:00;;;;;;;3.63;3.25;;;;;;;27.69;43.64;100546.00;5009369;28;20033;-60
2022/08/16 02:42:25;;;;;;;4.32;3.58;;;;;;;27.71;43.67;100543.03;5026432;28;20030;-59
2022/08/16 02:44:50;;;;;;;4.53;3.20;;;;;;;27.70;43.79;100542.22;5009072;28;20034;-59
2022/08/16 02:47:15;;;;;;;4.85;3.35;;;;;;;27.70;43.57;100547.69;5008932;28;20052;-59
2022/08/16 02:49:42;;;;;;;4.72;3.53;;;;;;;27.69;43.64;100543.25;5026574;28;20029;-58
2022/08/16 02:52:09;;;;;;;4.53;3.58;;;;;;;27.67;44.00;100540.78;5008268;28;20053;-60
2022/08/16 02:54:35;;;;;;;3.63;3.33;;;;;;;27.66;43.54;100538.28;5008929;28;20042;-59
2022/08/16 02:57:00;;;;;;;4.15;3.15;;;;;;;27.69;43.70;100539.69;5026424;28;20036;-58
2022/08/16 02:59:26;;;;;;;3.78;3.42;;;;;;;27.67;43.48;100543.50;5008690;28;20032;-58
2022/08/16 03:01:51;;;;;;;4.00;3.50;;;;;;;27.69;43.75;100539.69;5008627;28;20026;-58
2022/08/16 03:04:17;;;;;;;3.50;3.20;;;;;;;27.47;43.57;100512.97;5026165;28;20030;-59
2022/08/16 03:06:42;;;;;;;4.05;3.65;;;;;;;27.66;43.67;100546.47;5025694;28;20105;-59
2022/08/16 03:09:07;;;;;;;4.82;3.67;;;;;;;27.65;43.54;100544.78;5026291;28;20133;-59
2022/08/16 03:11:32;;;;;;;4.50;3.47;;;;;;;27.63;43.42;100539.59;5024252;28;20092;-59
2022/08/16 03:13:58;;;;;;;4.28;3.63;;;;;;;27.50;43.48;100520.69;5045770;28;20025;-59
2022/08/16 03:16:24;;;;;;;3.47;3.10;;;;;;;27.47;43.73;100520.31;5045914;28;20057;-59
2022/08/16 03:18:49;;;;;;;3.90;3.35;;;;;;;27.44;43.51;100516.16;5028281;28;20390;-59
2022/08/16 03:21:14;;;;;;;3.65;3.35;;;;;;;27.64;43.60;100545.88;5027896;28;20108;-59
2022/08/16 03:23:40;;;;;;;4.55;3.63;;;;;;;27.63;43.34;100541.47;5045679;28;20039;-60
2022/08/16 03:26:05;;;;;;;4.05;3.15;;;;;;;27.62;43.22;100540.66;5045420;28;20029;-60
2022/08/16 03:28:31;;;;;;;3.78;3.42;;;;;;;27.62;43.19;100537.09;5028137;28;20037;-60
2022/08/16 03:30:56;;;;;;;4.00;3.60;;;;;;;27.61;43.25;100533.53;5045448;28;20053;-59
2022/08/16 03:33:21;;;;;;;3.58;3.20;;;;;;;27.60;43.19;100534.59;5028128;28;20025;-60
2022/08/16 03:35:46;;;;;;;4.18;3.55;;;;;;;27.60;43.08;100528.28;5045126;28;20029;-60
2022/08/16 03:38:14;;;;;;;5.95;4.18;;;;;;;27.60;43.51;100528.28;5027496;28;20032;-59
2022/08/16 03:40:39;;;;;;;4.15;3.20;;;;;;;27.57;43.22;100529.63;5027801;28;20060;-59
2022/08/16 03:43:07;;;;;;;4.05;3.53;;;;;;;27.59;43.20;100532.09;5045053;28;20029;-59
2022/08/16 03:45:33;;;;;;;4.07;3.30;;;;;;;27.56;43.31;100527.94;5027470;28;20037;-60
2022/08/16 03:47:59;;;;;;;4.07;3.60;;;;;;;27.59;43.18;100534.81;5027788;28;20033;-59
2022/08/16 03:50:25;;;;;;;3.92;3.35;;;;;;;27.38;43.02;100506.19;5027499;28;20079;-59
2022/08/16 03:52:50;;;;;;;5.78;3.67;;;;;;;27.57;43.40;100536.94;5044542;28;20045;-59
2022/08/16 03:55:15;;;;;;;4.35;3.33;;;;;;;27.56;43.35;100541.59;5045283;28;20037;-59
2022/08/16 03:57:41;;;;;;;4.97;3.50;;;;;;;27.56;43.24;100538.84;5045429;28;20029;-59
2022/08/16 04:00:13;;;;;;;5.13;3.47;;;;;;;27.56;43.25;100538.84;5045369;28;20117;-60
2022/08/16 04:02:40;;;;;;;3.78;3.40;;;;;;;27.55;42.88;100545.38;5045501;28;20031;-59
2022/08/16 04:05:06;;;;;;;3.75;3.40;;;;;;;27.54;42.89;100551.91;5027372;28;20181;-59
2022/08/16 04:07:31;;;;;;;3.58;3.28;;;;;;;27.38;43.01;100519.84;5026695;28;20029;-59
2022/08/16 04:09:57;;;;;;;4.13;3.58;;;;;;;27.55;43.00;100552.75;5042412;28;20149;-58
2022/08/16 04:12:22;;;;;;;4.57;3.22;;;;;;;27.53;43.03;100550.25;5007325;28;20046;-59
2022/08/16 04:14:48;;;;;;;3.90;3.20;;;;;;;27.54;43.24;100551.09;5025256;28;20149;-59
2022/08/16 04:17:14;;;;;;;3.70;3.20;;;;;;;27.53;42.85;100546.72;5006882;28;20032;-59
2022/08/16 04:19:40;;;;;;;3.88;3.47;;;;;;;27.51;43.18;100546.91;5007692;28;20101;-59
2022/08/16 04:22:05;;;;;;;3.38;3.08;;;;;;;27.50;42.84;100550.72;5024557;28;20045;-58
2022/08/16 04:24:30;;;;;;;4.43;3.67;;;;;;;27.50;42.75;100553.47;5007809;28;20162;-59
2022/08/16 04:26:55;;;;;;;3.85;3.20;;;;;;;27.47;43.11;100553.09;5007133;28;20030;-59
2022/08/16 04:29:21;;;;;;;3.92;3.60;;;;;;;27.50;43.07;100567.09;5025186;28;20057;-59
2022/08/16 04:31:47;;;;;;;5.20;3.45;;;;;;;27.50;43.01;100563.56;5024815;28;20029;-58
2022/08/16 04:34:13;;;;;;;3.40;3.10;;;;;;;27.49;42.72;100562.72;5024924;28;20022;-59
2022/08/16 04:36:38;;;;;;;4.32;3.63;;;;;;;27.48;42.80;100563.75;5024594;28;20094;-59
2022/08/16 04:39:04;;;;;;;3.53;3.22;;;;;;;27.49;43.13;100578.28;5007175;28;20048;-59
2022/08/16 04:41:30;;;;;;;4.10;3.60;;;;;;;27.31;43.06;100547.22;5025321;28;20030;-59
2022/08/16 04:43:55;;;;;;;3.83;3.40;;;;;;;27.47;42.91;100561.28;5007515;28;20097;-59
2022/08/16 04:46:21;;;;;;;4.35;3.30;;;;;;;27.47;42.99;100573.03;5024905;28;20037;-59
2022/08/16 04:48:46;;;;;;;4.22;3.50;;;;;;;27.48;43.10;100579.31;5007539;28;20089;-59
2022/08/16 04:51:11;;;;;;;3.88;3.55;;;;;;;27.31;42.76;100557.31;5024898;28;20522;-59
2022/08/16 04:53:37;;;;;;;5.97;3.67;;;;;;;27.43;43.01;100577.28;5007040;28;20073;-59
2022/08/16 04:56:02;;;;;;;4.43;3.67;;;;;;;27.45;42.75;100585.28;5007078;28;20032;-59
2022/08/16 04:58:30;;;;;;;4.47;3.53;;;;;;;27.25;43.00;100555.53;5025038;28;20041;-58
2022/08/16 05:00:56;;;;;;;4.03;3.47;;;;;;;27.26;42.81;100562.66;4990880;28;20154;-59
2022/08/16 05:03:22;;;;;;;3.85;3.40;;;;;;;27.41;42.76;100582.16;5024202;28;20148;-59
2022/08/16 05:05:48;;;;;;;4.32;3.92;;;;;;;27.30;42.81;100566.56;5005753;28;20043;-59
2022/08/16 05:08:13;;;;;;;4.22;3.72;;;;;;;27.38;42.61;100580.72;5023224;28;20030;-59
2022/08/16 05:10:38;;;;;;;4.53;3.50;;;;;;;27.44;43.03;100594.50;5032869;28;20033;-59
2022/08/16 05:13:04;;;;;;;3.97;3.58;;;;;;;27.22;42.98;100562.28;5026131;28;20621;-59
2022/08/16 05:15:30;;;;;;;4.20;3.60;;;;;;;27.41;42.96;100593.91;5026658;28;20033;-59
2022/08/16 05:17:55;;;;;;;3.92;3.55;;;;;;;27.42;42.76;100601.03;5044170;28;20022;-60
2022/08/16 05:20:21;;;;;;;3.30;2.92;;;;;;;27.40;43.15;100594.16;5044113;28;20531;-60
2022/08/16 05:22:46;;;;;;;4.65;3.50;;;;;;;27.41;42.75;100593.91;5044057;28;20441;-59
2022/08/16 05:25:12;;;;;;;3.97;3.30;;;;;;;27.41;42.90;100599.38;5026859;28;20022;-59
2022/08/16 05:27:38;;;;;;;4.78;3.50;;;;;;;27.27;43.15;100578.81;5043903;28;20056;-60
2022/08/16 05:30:05;;;;;;;4.68;3.80;;;;;;;27.37;43.16;100591.88;5027747;28;20036;-59
2022/08/16 05:32:31;;;;;;;3.47;3.17;;;;;;;27.42;42.84;100594.75;5047932;28;20219;-59
2022/08/16 05:34:56;;;;;;;3.50;3.20;;;;;;;27.41;43.04;100598.56;5047477;28;20037;-59
2022/08/16 05:37:23;;;;;;;3.70;3.30;;;;;;;27.41;42.97;100609.47;5029378;28;20036;-59
2022/08/16 05:39:49;;;;;;;3.67;3.35;;;;;;;27.41;42.87;100606.75;5047770;28;20086;-60
2022/08/16 05:42:14;;;;;;;4.07;3.60;;;;;;;27.22;43.25;100583.28;5029634;28;20029;-59
2022/08/16 05:44:39;;;;;;;4.20;3.50;;;;;;;27.40;43.23;100613.28;5029795;28;20044;-58
2022/08/16 05:47:05;;;;;;;4.25;3.17;;;;;;;27.22;43.08;100573.19;5012682;28;20028;-59
2022/08/16 05:49:30;;;;;;;3.67;3.38;;;;;;;27.41;43.08;100615.75;5013385;28;20093;-58
2022/08/16 05:51:55;;;;;;;3.60;3.30;;;;;;;27.39;42.95;100606.13;5046963;28;20145;-59
2022/08/16 05:54:21;;;;;;;3.33;3.03;;;;;;;27.40;43.17;100619.56;5029753;28;20059;-59
2022/08/16 05:56:47;;;;;;;3.60;3.30;;;;;;;27.22;42.79;100592.28;5029300;28;20040;-59
2022/08/16 05:59:14;;;;;;;4.00;3.60;;;;;;;27.39;43.11;100620.59;5013230;28;20025;-59
2022/08/16 06:01:40;;;;;;;4.00;3.60;;;;;;;27.40;42.84;100624.19;5029141;28;20030;-60
2022/08/16 06:04:06;;;;;;;4.10;3.63;;;;;;;27.40;43.04;100621.47;5029259;28;20033;-59
2022/08/16 06:06:32;;;;;;;3.35;3.00;;;;;;;27.23;43.04;100601.31;5028834;28;20064;-59
2022/08/16 06:08:57;;;;;;;3.92;3.53;;;;;;;27.40;43.11;100626.94;5028849;28;20033;-59
2022/08/16 06:11:22;;;;;;;3.95;3.55;;;;;;;27.42;42.89;100630.25;5032457;28;20364;-60
2022/08/16 06:13:47;;;;;;;6.80;3.40;;;;;;;27.39;42.91;100617.88;5026701;28;20057;-59
2022/08/16 06:16:13;;;;;;;4.07;3.67;;;;;;;27.41;42.82;100626.69;5026853;28;20029;-60
2022/08/16 06:18:38;;;;;;;5.50;3.97;;;;;;;27.39;42.86;100620.59;4993306;28;20033;-60
2022/08/16 06:21:03;;;;;;;4.95;3.70;;;;;;;27.40;42.90;100618.75;5026847;28;20614;-60
2022/08/16 06:23:30;;;;;;;4.13;3.70;;;;;;;27.38;43.01;100615.38;5026500;28;20382;-60
2022/08/16 06:25:55;;;;;;;4.28;3.53;;;;;;;27.41;43.31;100631.31;5009152;28;20030;-60
2022/08/16 06:28:21;;;;;;;3.67;3.20;;;;;;;27.41;43.04;100625.84;5027071;28;20064;-60
2022/08/16 06:30:46;;;;;;;3.90;3.45;;;;;;;27.42;43.05;100635.72;5026614;28;20033;-60
2022/08/16 06:33:16;;;;;;;4.75;3.60;;;;;;;27.42;42.99;100627.50;5026777;28;20022;-60
2022/08/16 06:35:42;;;;;;;4.90;3.50;;;;;;;27.41;42.89;100618.50;5008971;28;20089;-60
2022/08/16 06:38:07;;;;;;;3.92;3.53;;;;;;;27.42;43.14;100619.31;5025741;28;20025;-60
2022/08/16 06:40:33;;;;;;;3.75;3.35;;;;;;;27.42;42.89;100619.31;4992374;28;20021;-60
2022/08/16 06:42:58;;;;;;;4.13;3.47;;;;;;;27.41;42.92;100626.69;5030762;28;20028;-58
2022/08/16 06:45:23;;;;;;;3.97;3.47;;;;;;;27.26;43.47;100600.84;5020118;28;20029;-60
2022/08/16 06:47:49;;;;;;;4.60;3.45;;;;;;;27.42;42.88;100624.78;5032887;28;20038;-59
2022/08/16 06:50:15;;;;;;;3.97;3.58;;;;;;;27.42;43.07;100625.59;5026538;28;20034;-59
2022/08/16 06:52:41;;;;;;;4.90;4.30;;;;;;;27.42;42.96;100630.25;5026070;28;20053;-59
2022/08/16 06:55:08;;;;;;;4.82;3.88;;;;;;;27.41;43.41;100632.16;5028581;28;20088;-60
2022/08/16 06:57:34;;;;;;;3.58;3.28;;;;;;;27.42;43.06;100627.50;5028354;28;20051;-60
2022/08/16 06:59:59;;;;;;;3.83;3.20;;;;;;;27.42;42.94;100636.53;5019798;28;20117;-60
2022/08/16 07:02:24;;;;;;;3.80;3.40;;;;;;;27.43;43.27;100640.09;5008654;28;20029;-59
2022/08/16 07:04:51;;;;;;;4.22;3.80;;;;;;;27.41;43.38;100636.78;5026107;28;20049;-59
2022/08/16 07:07:19;;;;;;;4.15;3.70;;;;;;;27.36;43.22;100629.28;5008121;28;20026;-60
2022/08/16 07:09:44;;;;;;;3.83;3.42;;;;;;;27.41;43.40;100625.84;5008882;28;20045;-60
2022/08/16 07:12:09;;;;;;;4.70;4.30;;;;;;;27.42;43.36;100641.16;5026009;28;20033;-60
2022/08/16 07:14:35;;;;;;;3.95;3.60;;;;;;;27.25;43.28;100610.13;5026396;28;20029;-60
2022/08/16 07:17:00;;;;;;;4.03;3.63;;;;;;;27.26;43.35;100615.34;5033431;28;20040;-60
2022/08/16 07:19:27;;;;;;;4.53;3.70;;;;;;;27.40;43.58;100638.69;5028237;28;20432;-60
2022/08/16 07:21:52;;;;;;;4.68;4.28;;;;;;;27.41;43.25;100640.34;5027304;28;20057;-60
2022/08/16 07:24:18;;;;;;;3.75;3.45;;;;;;;27.41;43.18;100644.97;5045856;28;20032;-60
2022/08/16 07:26:43;;;;;;;4.40;3.85;;;;;;;27.38;43.24;100642.69;5045487;28;20439;-59
2022/08/16 07:29:09;;;;;;;4.00;3.60;;;;;;;27.41;43.22;100650.44;5045805;28;20021;-59
2022/08/16 07:31:34;;;;;;;4.18;3.78;;;;;;;27.38;43.89;100645.41;5027991;28;20041;-59
2022/08/16 07:33:59;;;;;;;3.75;3.45;;;;;;;27.41;43.73;100655.88;5045669;28;20029;-59
2022/08/16 07:36:25;;;;;;;3.95;3.55;;;;;;;27.25;43.47;100632.78;5045361;28;20365;-59
2022/08/16 07:38:51;;;;;;;4.47;3.97;;;;;;;27.40;43.36;100663.25;5027464;28;20044;-59
2022/08/16 07:41:16;;;;;;;4.20;3.80;;;;;;;27.41;43.54;100661.34;5045502;28;20048;-60
2022/08/16 07:43:41;;;;;;;4.43;4.03;;;;;;;27.24;43.43;100633.84;5010937;28;20087;-60
2022/08/16 07:46:08;;;;;;;5.28;4.03;;;;;;;27.21;43.28;100633.47;5010940;28;20032;-60
2022/08/16 07:48:33;;;;;;;5.65;4.32;;;;;;;27.41;43.48;100672.28;5045342;28;20051;-59
2022/08/16 07:50:59;;;;;;;4.35;3.95;;;;;;;27.38;43.71;100672.72;5020980;28;20018;-60
2022/08/16 07:53:25;;;;;;;4.40;4.05;;;;;;;27.40;43.63;100671.44;5006596;28;20072;-59
2022/08/16 07:55:51;;;;;;;6.43;3.58;;;;;;;27.41;43.64;100675.00;5008162;28;20048;-58
2022/08/16 07:58:17;;;;;;;4.75;4.03;;;;;;;27.40;43.33;100674.16;5025445;28;20442;-59
2022/08/16 08:00:42;;;;;;;4.80;3.92;;;;;;;27.22;43.58;100640.59;5025339;28;20026;-60
2022/08/16 08:03:08;;;;;;;5.70;4.80;;;;;;;27.25;43.84;100653.78;5007660;28;20032;-59
2022/08/16 08:05:33;;;;;;;5.28;4.10;;;;;;;27.41;43.81;100686.75;5007821;28;20028;-60
2022/08/16 08:07:58;;;;;;;4.53;3.75;;;;;;;27.26;43.90;100658.19;5007237;28;20030;-60
2022/08/16 08:10:24;;;;;;;4.78;4.07;;;;;;;27.23;43.87;100654.03;5025381;28;20026;-60
2022/08/16 08:12:51;;;;;;;5.13;4.63;;;;;;;27.41;43.60;100689.47;4991045;28;20084;-60
2022/08/16 08:15:18;;;;;;;4.30;3.90;;;;;;;27.41;44.10;100688.66;5007815;28;20037;-60
2022/08/16 08:17:43;;;;;;;4.30;3.90;;;;;;;27.41;44.14;100688.66;5025061;28;20018;-60
2022/08/16 08:20:12;;;;;;;5.35;4.45;;;;;;;27.41;44.13;100694.13;5007539;28;20026;-60
2022/08/16 08:22:38;;;;;;;4.22;3.83;;;;;;;27.41;44.11;100686.75;5025075;28;20550;-60
2022/08/16 08:25:04;;;;;;;6.35;4.22;;;;;;;27.41;43.97;100694.13;5025223;28;20036;-59
2022/08/16 08:27:29;;;;;;;4.88;4.38;;;;;;;27.41;43.94;100694.94;5007171;28;20061;-59
2022/08/16 08:29:54;;;;;;;5.40;4.57;;;;;;;27.25;44.01;100662.00;5024922;28;20033;-59
2022/08/16 08:32:20;;;;;;;4.18;3.85;;;;;;;27.23;44.00;100669.56;5025112;28;20614;-59
2022/08/16 08:34:46;;;;;;;4.68;4.05;;;;;;;27.42;44.43;100696.59;5007318;28;20060;-59
2022/08/16 08:37:11;;;;;;;4.28;3.88;;;;;;;27.44;44.57;100696.34;5024692;28;20056;-59
2022/08/16 08:39:39;;;;;;;4.13;3.72;;;;;;;27.25;44.47;100665.53;4991201;28;20101;-59
2022/08/16 08:42:05;;;;;;;4.57;4.15;;;;;;;27.46;44.71;100698.88;5024512;28;20029;-59
2022/08/16 08:44:32;;;;;;;4.63;4.22;;;;;;;27.47;44.39;100695.06;5025166;28;20507;-59
2022/08/16 08:46:59;;;;;;;4.55;4.15;;;;;;;27.48;44.49;100694.00;5007161;28;20034;-59
2022/08/16 08:49:24;;;;;;;4.78;4.32;;;;;;;27.50;44.45;100702.81;5025226;28;20018;-59
2022/08/16 08:51:49;;;;;;;4.25;3.80;;;;;;;27.34;43.91;100677.81;5037577;28;20056;-59
2022/08/16 08:54:15;;;;;;;4.70;4.30;;;;;;;27.51;44.00;100701.75;5027096;28;20091;-59
2022/08/16 08:56:40;;;;;;;4.20;3.80;;;;;;;27.48;44.09;100696.72;5044481;28;20026;-59
2022/08/16 08:59:06;;;;;;;4.20;3.90;;;;;;;27.54;44.29;100698.56;5026974;28;20083;-60
2022/08/16 09:01:34;;;;;;;3.80;3.47;;;;;;;27.54;44.33;100696.66;5044390;28;20025;-60
2022/08/16 09:04:02;;;;;;;4.75;4.30;;;;;;;27.54;44.58;100696.66;5045989;28;20482;-60
2022/08/16 09:06:27;;;;;;;3.70;3.33;;;;;;;27.53;43.99;100695.00;5030816;28;20049;-61
2022/08/16 09:08:52;;;;;;;4.57;4.10;;;;;;;27.52;44.60;100690.56;5048307;28;20052;-58
2022/08/16 09:11:18;;;;;;;4.93;3.95;;;;;;;27.56;44.16;100693.69;5048101;28;20017;-58
2022/08/16 09:13:43;;;;;;;4.28;3.97;;;;;;;27.57;44.11;100693.47;5030637;28;20088;-59
2022/08/16 09:16:09;;;;;;;4.30;3.90;;;;;;;27.52;44.18;100690.56;5047873;28;20075;-60
2022/08/16 09:18:34;;;;;;;4.30;3.90;;;;;;;27.58;44.14;100697.88;5030518;28;20088;-59
2022/08/16 09:20:59;;;;;;;4.10;3.72;;;;;;;27.59;44.34;100698.69;5029916;28;20048;-59
2022/08/16 09:23:24;;;;;;;4.00;3.70;;;;;;;27.58;44.21;100697.88;5030066;28;20057;-59
2022/08/16 09:25:50;;;;;;;4.28;3.88;;;;;;;27.55;43.83;100697.50;5047681;28;20056;-59
2022/08/16 09:28:16;;;;;;;4.03;3.63;;;;;;;27.41;43.89;100673.09;5048026;28;20034;-59
2022/08/16 09:30:41;;;;;;;4.70;3.90;;;;;;;27.60;44.07;100700.34;5047766;28;20029;-59
2022/08/16 09:33:07;;;;;;;4.18;3.70;;;;;;;27.40;44.08;100668.72;5030281;28;20021;-59
2022/08/16 09:35:34;;;;;;;3.92;3.63;;;;;;;27.58;43.98;100700.59;5047798;28;20389;-59
2022/08/16 09:37:59;;;;;;;4.20;3.80;;;;;;;27.61;44.20;100704.75;5047185;28;20031;-59
2022/08/16 09:40:25;;;;;;;3.85;3.53;;;;;;;27.59;44.55;100698.69;5047703;28;20116;-60
2022/08/16 09:42:52;;;;;;;4.13;3.72;;;;;;;27.41;43.98;100667.63;5047536;28;20040;-60
2022/08/16 09:45:18;;;;;;;4.00;3.60;;;;;;;27.61;44.37;100699.28;5047836;28;20032;-60
2022/08/16 09:47:43;;;;;;;3.90;3.50;;;;;;;27.60;44.01;100701.19;5029787;28;20048;-59
2022/08/16 09:50:10;;;;;;;4.57;4.18;;;;;;;27.38;44.12;100664.53;5047510;28;20028;-60
2022/08/16 09:52:37;;;;;;;3.72;3.42;;;;;;;27.46;44.17;100672.41;5009706;28;20046;-60
2022/08/16 09:55:08;;;;;;;3.88;3.55;;;;;;;27.63;44.18;100708.91;5010121;28;20093;-60
2022/08/16 09:57:33;;;;;;;4.45;3.88;;;;;;;27.62;44.05;100700.97;4993868;28;20032;-60
2022/08/16 10:00:02;;;;;;;3.90;3.60;;;;;;;27.64;43.73;100701.56;5009882;28;20026;-60
2022/08/16 10:02:28;;;;;;;4.35;3.97;;;;;;;27.64;43.70;100701.56;5009968;28;20030;-60
2022/08/16 10:04:55;;;;;;;3.90;3.60;;;;;;;27.64;43.86;100701.56;5009881;28;20026;-60
2022/08/16 10:07:22;;;;;;;4.32;3.92;;;;;;;27.42;43.75;100669.28;5009282;28;20022;-59
2022/08/16 10:09:47;;;;;;;3.58;3.28;;;;;;;27.64;43.54;100696.91;5027515;28;20017;-60
2022/08/16 10:14:56;;;;;;;3.92;3.50;;;;;;;27.48;44.20;100677.63;5012087;28;20048;-60
2022/08/16 10:17:23;;;;;;;4.25;3.70;;;;;;;27.48;44.05;100675.72;5009037;28;20487;-60
2022/08/16 10:19:50;;;;;;;3.75;3.45;;;;;;;27.63;43.82;100697.16;5009914;28;20023;-59
2022/08/16 10:22:16;;;;;;;3.70;3.40;;;;;;;27.59;43.54;100696.78;5009303;28;20058;-60
2022/08/16 10:24:41;;;;;;;3.65;3.33;;;;;;;27.65;43.75;100703.22;5027287;28;20042;-60
2022/08/16 10:27:07;;;;;;;4.45;3.83;;;;;;;27.59;44.03;100695.97;5026737;28;20049;-61
2022/08/16 10:29:32;;;;;;;4.22;3.53;;;;;;;27.63;43.70;100705.34;5009650;28;20030;-58
2022/08/16 10:31:59;;;;;;;3.47;3.17;;;;;;;27.62;43.44;100699.06;5009184;28;20022;-58
2022/08/16 10:34:24;;;;;;;3.60;3.30;;;;;;;27.67;43.83;100709.28;5027165;28;20049;-59
2022/08/16 10:36:49;;;;;;;3.40;3.10;;;;;;;27.66;43.73;100702.16;5008803;28;20049;-59
2022/08/16 10:39:15;;;;;;;3.63;3.30;;;;;;;27.69;43.57;100709.06;5026763;28;20022;-59
2022/08/16 10:41:40;;;;;;;3.88;3.30;;;;;;;27.69;43.64;100709.88;5026376;28;20033;-58
2022/08/16 10:44:05;;;;;;;4.45;3.83;;;;;;;27.70;43.80;100716.19;5026782;28;20034;-59
2022/08/16 10:46:31;;;;;;;3.20;2.85;;;;;;;27.50;43.71;100680.97;5026382;28;20045;-59
2022/08/16 10:48:56;;;;;;;3.33;3.00;;;;;;;27.71;43.77;100720.59;5028559;28;20033;-59
2022/08/16 10:51:22;;;;;;;3.90;3.60;;;;;;;27.70;43.36;100729.84;5036550;28;20060;-59
2022/08/16 10:53:47;;;;;;;4.32;2.95;;;;;;;27.72;43.38;100731.28;5008438;28;20046;-59
2022/08/16 10:56:12;;;;;;;3.63;3.33;;;;;;;27.72;43.63;100734.00;5026433;28;20129;-59
2022/08/16 10:58:39;;;;;;;3.65;3.30;;;;;;;27.73;43.66;100734.88;5026670;28;20072;-59
2022/08/16 11:01:07;;;;;;;3.40;3.10;;;;;;;27.73;43.40;100732.13;5008888;28;20030;-59
2022/08/16 11:03:32;;;;;;;2.97;2.67;;;;;;;27.74;43.40;100733.81;5009273;28;20037;-60
2022/08/16 11:05:58;;;;;;;3.20;2.90;;;;;;;27.72;43.55;100730.44;5026067;28;20279;-59
2022/08/16 11:08:23;;;;;;;3.33;3.03;;;;;;;27.58;43.51;100714.25;5008391;28;20057;-58
2022/08/16 11:10:48;;;;;;;3.63;3.00;;;;;;;27.76;43.50;100740.72;5008874;28;20018;-59
2022/08/16 11:13:18;;;;;;;3.28;2.97;;;;;;;27.77;43.48;100742.38;5008347;28;20037;-59
2022/08/16 11:15:44;;;;;;;3.50;3.13;;;;;;;27.58;43.33;100711.53;5026026;28;20025;-59
2022/08/16 11:18:10;;;;;;;3.33;3.03;;;;;;;27.77;43.27;100734.19;5025997;28;20022;-59
2022/08/16 11:20:36;;;;;;;4.75;3.20;;;;;;;27.79;43.23;100729.31;5026188;28;20130;-59